sensor_id;sensor_type;location;lat;lon;timestamp;P1;durP1;ratioP1;P2;durP2;ratioP2
59512;SDS011;45330;51.634;5.562;2022-12-19T00:03:41;52.63;;;26.88;;
59512;SDS011;45330;51.634;5.562;2022-12-19T00:06:14;49.13;;;26.50;;
59512;SDS011;45330;51.634;5.562;2022-12-19T00:08:41;50.60;;;26.75;;
59512;SDS011;45330;51.634;5.562;2022-12-19T00:11:07;50.47;;;26.73;;
59512;SDS011;45330;51.634;5.562;2022-12-19T00:13:34;51.55;;;28.02;;
59512;SDS011;45330;51.634;5.562;2022-12-19T00:16:04;56.65;;;27.80;;
59512;SDS011;45330;51.634;5.562;2022-12-19T00:18:31;55.30;;;28.05;;
59512;SDS011;45330;51.634;5.562;2022-12-19T00:20:58;50.20;;;26.08;;
59512;SDS011;45330;51.634;5.562;2022-12-19T00:23:28;57.20;;;28.75;;
59512;SDS011;45330;51.634;5.562;2022-12-19T00:26:09;52.70;;;24.83;;
59512;SDS011;45330;51.634;5.562;2022-12-19T00:28:36;55.45;;;29.33;;
59512;SDS011;45330;51.634;5.562;2022-12-19T00:31:02;58.90;;;29.38;;
59512;SDS011;45330;51.634;5.562;2022-12-19T00:33:28;59.92;;;29.70;;
59512;SDS011;45330;51.634;5.562;2022-12-19T00:35:58;59.00;;;29.35;;
59512;SDS011;45330;51.634;5.562;2022-12-19T00:38:24;57.10;;;27.75;;
59512;SDS011;45330;51.634;5.562;2022-12-19T00:40:50;61.00;;;28.45;;
59512;SDS011;45330;51.634;5.562;2022-12-19T00:43:15;57.45;;;29.25;;
59512;SDS011;45330;51.634;5.562;2022-12-19T00:45:41;57.25;;;26.67;;
59512;SDS011;45330;51.634;5.562;2022-12-19T00:48:06;56.85;;;27.00;;
59512;SDS011;45330;51.634;5.562;2022-12-19T00:50:32;58.70;;;28.38;;
59512;SDS011;45330;51.634;5.562;2022-12-19T00:52:57;57.83;;;29.02;;
59512;SDS011;45330;51.634;5.562;2022-12-19T00:55:22;58.55;;;26.92;;
59512;SDS011;45330;51.634;5.562;2022-12-19T00:57:48;58.38;;;28.20;;
59512;SDS011;45330;51.634;5.562;2022-12-19T01:00:14;59.22;;;28.77;;
59512;SDS011;45330;51.634;5.562;2022-12-19T01:02:41;57.88;;;30.42;;
59512;SDS011;45330;51.634;5.562;2022-12-19T01:05:06;55.83;;;29.30;;
59512;SDS011;45330;51.634;5.562;2022-12-19T01:07:32;56.88;;;29.75;;
59512;SDS011;45330;51.634;5.562;2022-12-19T01:09:57;56.33;;;26.65;;
59512;SDS011;45330;51.634;5.562;2022-12-19T01:12:22;53.45;;;28.95;;
59512;SDS011;45330;51.634;5.562;2022-12-19T01:15:07;49.20;;;23.83;;
59512;SDS011;45330;51.634;5.562;2022-12-19T01:17:33;52.30;;;26.85;;
59512;SDS011;45330;51.634;5.562;2022-12-19T01:20:01;54.20;;;27.52;;
59512;SDS011;45330;51.634;5.562;2022-12-19T01:22:27;55.60;;;27.00;;
59512;SDS011;45330;51.634;5.562;2022-12-19T01:24:52;51.63;;;27.60;;
59512;SDS011;45330;51.634;5.562;2022-12-19T01:27:17;51.08;;;24.67;;
59512;SDS011;45330;51.634;5.562;2022-12-19T01:29:43;52.70;;;27.45;;
59512;SDS011;45330;51.634;5.562;2022-12-19T01:32:08;53.65;;;26.65;;
59512;SDS011;45330;51.634;5.562;2022-12-19T01:34:33;50.97;;;25.50;;
59512;SDS011;45330;51.634;5.562;2022-12-19T01:36:59;58.95;;;27.65;;
59512;SDS011;45330;51.634;5.562;2022-12-19T01:39:24;54.40;;;26.92;;
59512;SDS011;45330;51.634;5.562;2022-12-19T01:41:49;53.47;;;26.45;;
59512;SDS011;45330;51.634;5.562;2022-12-19T01:44:15;51.63;;;26.05;;
59512;SDS011;45330;51.634;5.562;2022-12-19T01:46:45;47.47;;;21.95;;
59512;SDS011;45330;51.634;5.562;2022-12-19T01:49:18;50.05;;;26.67;;
59512;SDS011;45330;51.634;5.562;2022-12-19T01:51:49;52.92;;;26.05;;
59512;SDS011;45330;51.634;5.562;2022-12-19T01:54:21;52.80;;;26.35;;
59512;SDS011;45330;51.634;5.562;2022-12-19T01:56:52;51.30;;;26.08;;
59512;SDS011;45330;51.634;5.562;2022-12-19T01:59:22;48.67;;;25.08;;
59512;SDS011;45330;51.634;5.562;2022-12-19T02:01:54;52.95;;;26.30;;
59512;SDS011;45330;51.634;5.562;2022-12-19T02:04:24;56.67;;;27.63;;
59512;SDS011;45330;51.634;5.562;2022-12-19T02:06:51;54.10;;;27.40;;
59512;SDS011;45330;51.634;5.562;2022-12-19T02:09:19;52.58;;;24.70;;
59512;SDS011;45330;51.634;5.562;2022-12-19T02:11:44;53.55;;;28.15;;
59512;SDS011;45330;51.634;5.562;2022-12-19T02:14:10;54.13;;;26.95;;
59512;SDS011;45330;51.634;5.562;2022-12-19T02:33:13;51.95;;;25.25;;
59512;SDS011;45330;51.634;5.562;2022-12-19T02:35:50;51.08;;;25.95;;
59512;SDS011;45330;51.634;5.562;2022-12-19T02:38:35;55.50;;;25.55;;
59512;SDS011;45330;51.634;5.562;2022-12-19T02:41:09;51.65;;;26.30;;
59512;SDS011;45330;51.634;5.562;2022-12-19T02:43:41;53.65;;;26.25;;
59512;SDS011;45330;51.634;5.562;2022-12-19T02:46:11;58.45;;;27.50;;
59512;SDS011;45330;51.634;5.562;2022-12-19T02:48:37;54.92;;;25.40;;
59512;SDS011;45330;51.634;5.562;2022-12-19T02:51:04;53.67;;;27.30;;
59512;SDS011;45330;51.634;5.562;2022-12-19T02:53:30;53.40;;;27.58;;
59512;SDS011;45330;51.634;5.562;2022-12-19T02:56:12;52.65;;;25.95;;
59512;SDS011;45330;51.634;5.562;2022-12-19T03:12:10;51.67;;;25.80;;
59512;SDS011;45330;51.634;5.562;2022-12-19T03:14:41;51.28;;;27.05;;
59512;SDS011;45330;51.634;5.562;2022-12-19T03:17:07;55.50;;;25.17;;
59512;SDS011;45330;51.634;5.562;2022-12-19T03:19:33;59.33;;;26.48;;
59512;SDS011;45330;51.634;5.562;2022-12-19T03:22:02;57.67;;;26.67;;
59512;SDS011;45330;51.634;5.562;2022-12-19T03:24:27;54.70;;;26.23;;
59512;SDS011;45330;51.634;5.562;2022-12-19T03:26:54;54.30;;;27.83;;
59512;SDS011;45330;51.634;5.562;2022-12-19T03:29:42;54.42;;;26.65;;
59512;SDS011;45330;51.634;5.562;2022-12-19T03:32:16;52.58;;;22.08;;
59512;SDS011;45330;51.634;5.562;2022-12-19T03:34:44;59.35;;;26.83;;
59512;SDS011;45330;51.634;5.562;2022-12-19T03:37:16;59.05;;;27.40;;
59512;SDS011;45330;51.634;5.562;2022-12-19T03:39:45;54.22;;;24.83;;
59512;SDS011;45330;51.634;5.562;2022-12-19T03:42:15;54.25;;;26.50;;
59512;SDS011;45330;51.634;5.562;2022-12-19T03:45:02;54.53;;;24.40;;
59512;SDS011;45330;51.634;5.562;2022-12-19T03:47:32;61.00;;;26.50;;
59512;SDS011;45330;51.634;5.562;2022-12-19T03:50:02;47.85;;;20.73;;
59512;SDS011;45330;51.634;5.562;2022-12-19T03:57:56;61.15;;;26.60;;
59512;SDS011;45330;51.634;5.562;2022-12-19T04:00:42;58.55;;;26.45;;
59512;SDS011;45330;51.634;5.562;2022-12-19T04:03:16;55.72;;;26.08;;
59512;SDS011;45330;51.634;5.562;2022-12-19T04:05:44;56.63;;;26.58;;
59512;SDS011;45330;51.634;5.562;2022-12-19T04:08:10;59.03;;;28.00;;
59512;SDS011;45330;51.634;5.562;2022-12-19T04:10:56;58.05;;;27.42;;
59512;SDS011;45330;51.634;5.562;2022-12-19T04:19:54;60.30;;;25.77;;
59512;SDS011;45330;51.634;5.562;2022-12-19T04:22:48;57.23;;;24.17;;
59512;SDS011;45330;51.634;5.562;2022-12-19T04:25:10;56.10;;;26.17;;
59512;SDS011;45330;51.634;5.562;2022-12-19T04:27:39;59.05;;;25.27;;
59512;SDS011;45330;51.634;5.562;2022-12-19T04:30:11;55.90;;;25.80;;
59512;SDS011;45330;51.634;5.562;2022-12-19T04:32:38;54.97;;;24.60;;
59512;SDS011;45330;51.634;5.562;2022-12-19T04:35:06;58.30;;;25.80;;
59512;SDS011;45330;51.634;5.562;2022-12-19T04:37:31;58.80;;;24.55;;
59512;SDS011;45330;51.634;5.562;2022-12-19T04:39:57;54.30;;;23.75;;
59512;SDS011;45330;51.634;5.562;2022-12-19T04:42:22;54.30;;;23.77;;
59512;SDS011;45330;51.634;5.562;2022-12-19T04:44:48;56.33;;;23.40;;
59512;SDS011;45330;51.634;5.562;2022-12-19T04:47:13;52.63;;;23.38;;
59512;SDS011;45330;51.634;5.562;2022-12-19T04:49:38;56.45;;;22.55;;
59512;SDS011;45330;51.634;5.562;2022-12-19T04:52:04;55.33;;;23.23;;
59512;SDS011;45330;51.634;5.562;2022-12-19T04:54:29;55.17;;;22.42;;
59512;SDS011;45330;51.634;5.562;2022-12-19T04:56:56;45.45;;;21.15;;
59512;SDS011;45330;51.634;5.562;2022-12-19T04:59:21;50.13;;;21.00;;
59512;SDS011;45330;51.634;5.562;2022-12-19T05:01:47;47.97;;;20.48;;
59512;SDS011;45330;51.634;5.562;2022-12-19T05:04:12;44.15;;;20.05;;
59512;SDS011;45330;51.634;5.562;2022-12-19T05:06:38;48.17;;;20.90;;
59512;SDS011;45330;51.634;5.562;2022-12-19T05:09:03;45.70;;;19.75;;
59512;SDS011;45330;51.634;5.562;2022-12-19T05:11:29;46.25;;;20.55;;
59512;SDS011;45330;51.634;5.562;2022-12-19T05:13:54;42.95;;;19.60;;
59512;SDS011;45330;51.634;5.562;2022-12-19T05:16:20;42.75;;;18.63;;
59512;SDS011;45330;51.634;5.562;2022-12-19T05:18:45;41.75;;;18.77;;
59512;SDS011;45330;51.634;5.562;2022-12-19T05:21:11;51.13;;;20.20;;
59512;SDS011;45330;51.634;5.562;2022-12-19T05:23:36;40.08;;;18.42;;
59512;SDS011;45330;51.634;5.562;2022-12-19T05:26:02;45.78;;;19.05;;
59512;SDS011;45330;51.634;5.562;2022-12-19T05:28:30;42.83;;;19.63;;
59512;SDS011;45330;51.634;5.562;2022-12-19T05:31:03;47.03;;;18.88;;
59512;SDS011;45330;51.634;5.562;2022-12-19T05:33:33;40.22;;;17.58;;
59512;SDS011;45330;51.634;5.562;2022-12-19T05:35:59;40.53;;;18.48;;
59512;SDS011;45330;51.634;5.562;2022-12-19T05:38:25;40.90;;;17.52;;
59512;SDS011;45330;51.634;5.562;2022-12-19T05:40:50;42.17;;;16.50;;
59512;SDS011;45330;51.634;5.562;2022-12-19T05:43:16;44.03;;;19.63;;
59512;SDS011;45330;51.634;5.562;2022-12-19T05:45:41;40.78;;;18.35;;
59512;SDS011;45330;51.634;5.562;2022-12-19T05:48:07;41.85;;;18.52;;
59512;SDS011;45330;51.634;5.562;2022-12-19T05:50:32;42.85;;;18.17;;
59512;SDS011;45330;51.634;5.562;2022-12-19T05:52:57;40.35;;;17.77;;
59512;SDS011;45330;51.634;5.562;2022-12-19T05:55:23;41.97;;;18.77;;
59512;SDS011;45330;51.634;5.562;2022-12-19T05:57:48;36.88;;;17.20;;
59512;SDS011;45330;51.634;5.562;2022-12-19T06:00:13;40.42;;;18.20;;
59512;SDS011;45330;51.634;5.562;2022-12-19T06:02:40;38.38;;;15.80;;
59512;SDS011;45330;51.634;5.562;2022-12-19T06:05:06;41.17;;;18.17;;
59512;SDS011;45330;51.634;5.562;2022-12-19T06:07:32;40.05;;;18.27;;
59512;SDS011;45330;51.634;5.562;2022-12-19T06:09:58;39.38;;;18.35;;
59512;SDS011;45330;51.634;5.562;2022-12-19T06:12:24;35.95;;;15.70;;
59512;SDS011;45330;51.634;5.562;2022-12-19T06:14:49;39.38;;;17.60;;
59512;SDS011;45330;51.634;5.562;2022-12-19T06:17:14;38.08;;;17.85;;
59512;SDS011;45330;51.634;5.562;2022-12-19T06:19:40;37.28;;;17.67;;
59512;SDS011;45330;51.634;5.562;2022-12-19T06:22:05;38.67;;;17.08;;
59512;SDS011;45330;51.634;5.562;2022-12-19T06:24:31;34.47;;;16.00;;
59512;SDS011;45330;51.634;5.562;2022-12-19T06:26:56;37.40;;;17.00;;
59512;SDS011;45330;51.634;5.562;2022-12-19T06:29:21;35.22;;;17.17;;
59512;SDS011;45330;51.634;5.562;2022-12-19T06:31:47;37.53;;;16.75;;
59512;SDS011;45330;51.634;5.562;2022-12-19T06:34:12;37.10;;;17.13;;
59512;SDS011;45330;51.634;5.562;2022-12-19T06:36:37;34.38;;;16.20;;
59512;SDS011;45330;51.634;5.562;2022-12-19T06:39:03;34.15;;;15.85;;
59512;SDS011;45330;51.634;5.562;2022-12-19T06:41:29;33.95;;;15.93;;
59512;SDS011;45330;51.634;5.562;2022-12-19T06:44:13;34.20;;;15.75;;
59512;SDS011;45330;51.634;5.562;2022-12-19T06:46:41;32.50;;;14.95;;
59512;SDS011;45330;51.634;5.562;2022-12-19T06:49:06;34.67;;;15.65;;
59512;SDS011;45330;51.634;5.562;2022-12-19T06:51:33;34.85;;;16.55;;
59512;SDS011;45330;51.634;5.562;2022-12-19T06:53:58;34.97;;;15.50;;
59512;SDS011;45330;51.634;5.562;2022-12-19T06:56:24;33.58;;;15.57;;
59512;SDS011;45330;51.634;5.562;2022-12-19T06:58:50;31.73;;;13.90;;
59512;SDS011;45330;51.634;5.562;2022-12-19T07:01:19;32.85;;;15.57;;
59512;SDS011;45330;51.634;5.562;2022-12-19T07:03:54;34.15;;;16.40;;
59512;SDS011;45330;51.634;5.562;2022-12-19T07:06:20;34.20;;;15.32;;
59512;SDS011;45330;51.634;5.562;2022-12-19T07:08:47;33.53;;;15.38;;
59512;SDS011;45330;51.634;5.562;2022-12-19T07:11:12;33.35;;;15.35;;
59512;SDS011;45330;51.634;5.562;2022-12-19T07:13:37;35.50;;;16.08;;
59512;SDS011;45330;51.634;5.562;2022-12-19T07:16:03;30.02;;;14.35;;
59512;SDS011;45330;51.634;5.562;2022-12-19T07:18:30;31.15;;;13.93;;
59512;SDS011;45330;51.634;5.562;2022-12-19T07:20:58;30.13;;;14.63;;
59512;SDS011;45330;51.634;5.562;2022-12-19T07:23:24;32.08;;;15.13;;
59512;SDS011;45330;51.634;5.562;2022-12-19T07:25:50;30.00;;;14.80;;
59512;SDS011;45330;51.634;5.562;2022-12-19T07:28:15;31.83;;;14.77;;
59512;SDS011;45330;51.634;5.562;2022-12-19T07:30:41;31.95;;;14.57;;
59512;SDS011;45330;51.634;5.562;2022-12-19T07:33:06;29.63;;;14.38;;
59512;SDS011;45330;51.634;5.562;2022-12-19T07:35:32;30.20;;;14.50;;
59512;SDS011;45330;51.634;5.562;2022-12-19T07:38:01;27.83;;;13.75;;
59512;SDS011;45330;51.634;5.562;2022-12-19T07:40:30;28.55;;;14.05;;
59512;SDS011;45330;51.634;5.562;2022-12-19T07:42:59;26.75;;;12.52;;
59512;SDS011;45330;51.634;5.562;2022-12-19T07:45:28;29.13;;;13.27;;
59512;SDS011;45330;51.634;5.562;2022-12-19T07:47:54;30.30;;;13.80;;
59512;SDS011;45330;51.634;5.562;2022-12-19T07:50:20;28.42;;;14.32;;
59512;SDS011;45330;51.634;5.562;2022-12-19T07:52:46;28.08;;;12.98;;
59512;SDS011;45330;51.634;5.562;2022-12-19T07:55:11;29.25;;;12.40;;
59512;SDS011;45330;51.634;5.562;2022-12-19T07:57:37;25.05;;;11.98;;
59512;SDS011;45330;51.634;5.562;2022-12-19T08:00:03;26.33;;;12.15;;
59512;SDS011;45330;51.634;5.562;2022-12-19T08:02:30;26.20;;;12.70;;
59512;SDS011;45330;51.634;5.562;2022-12-19T08:04:56;25.98;;;11.80;;
59512;SDS011;45330;51.634;5.562;2022-12-19T08:07:21;24.23;;;11.70;;
59512;SDS011;45330;51.634;5.562;2022-12-19T08:09:46;25.15;;;12.10;;
59512;SDS011;45330;51.634;5.562;2022-12-19T08:12:12;25.10;;;11.20;;
59512;SDS011;45330;51.634;5.562;2022-12-19T08:14:37;24.40;;;11.65;;
59512;SDS011;45330;51.634;5.562;2022-12-19T08:17:02;24.35;;;11.23;;
59512;SDS011;45330;51.634;5.562;2022-12-19T08:19:28;23.65;;;10.95;;
59512;SDS011;45330;51.634;5.562;2022-12-19T08:21:53;24.42;;;11.20;;
59512;SDS011;45330;51.634;5.562;2022-12-19T08:24:19;24.48;;;10.75;;
59512;SDS011;45330;51.634;5.562;2022-12-19T08:26:44;22.42;;;10.40;;
59512;SDS011;45330;51.634;5.562;2022-12-19T08:29:09;23.15;;;10.40;;
59512;SDS011;45330;51.634;5.562;2022-12-19T08:31:35;23.38;;;10.07;;
59512;SDS011;45330;51.634;5.562;2022-12-19T08:34:00;22.50;;;9.52;;
59512;SDS011;45330;51.634;5.562;2022-12-19T08:36:26;22.33;;;9.93;;
59512;SDS011;45330;51.634;5.562;2022-12-19T08:38:51;22.58;;;10.32;;
59512;SDS011;45330;51.634;5.562;2022-12-19T08:41:17;23.50;;;10.10;;
59512;SDS011;45330;51.634;5.562;2022-12-19T08:43:42;22.13;;;9.88;;
59512;SDS011;45330;51.634;5.562;2022-12-19T08:46:12;22.63;;;9.93;;
59512;SDS011;45330;51.634;5.562;2022-12-19T08:48:38;23.42;;;9.70;;
59512;SDS011;45330;51.634;5.562;2022-12-19T08:51:06;22.42;;;9.93;;
59512;SDS011;45330;51.634;5.562;2022-12-19T08:53:33;21.58;;;9.40;;
59512;SDS011;45330;51.634;5.562;2022-12-19T08:56:02;21.67;;;9.77;;
59512;SDS011;45330;51.634;5.562;2022-12-19T08:58:31;20.92;;;9.10;;
59512;SDS011;45330;51.634;5.562;2022-12-19T09:01:04;21.20;;;8.98;;
59512;SDS011;45330;51.634;5.562;2022-12-19T09:03:33;21.67;;;9.73;;
59512;SDS011;45330;51.634;5.562;2022-12-19T09:06:00;23.27;;;9.63;;
59512;SDS011;45330;51.634;5.562;2022-12-19T09:08:27;21.92;;;9.38;;
59512;SDS011;45330;51.634;5.562;2022-12-19T09:11:05;21.23;;;8.75;;
59512;SDS011;45330;51.634;5.562;2022-12-19T09:13:33;21.50;;;8.95;;
59512;SDS011;45330;51.634;5.562;2022-12-19T09:16:00;20.98;;;8.35;;
59512;SDS011;45330;51.634;5.562;2022-12-19T09:18:27;21.55;;;9.00;;
59512;SDS011;45330;51.634;5.562;2022-12-19T09:20:53;20.30;;;8.40;;
59512;SDS011;45330;51.634;5.562;2022-12-19T09:23:20;20.17;;;8.40;;
59512;SDS011;45330;51.634;5.562;2022-12-19T09:25:46;21.35;;;9.07;;
59512;SDS011;45330;51.634;5.562;2022-12-19T09:28:12;20.10;;;8.27;;
59512;SDS011;45330;51.634;5.562;2022-12-19T09:30:38;18.13;;;7.97;;
59512;SDS011;45330;51.634;5.562;2022-12-19T09:33:03;20.60;;;8.50;;
59512;SDS011;45330;51.634;5.562;2022-12-19T09:35:29;20.48;;;8.40;;
59512;SDS011;45330;51.634;5.562;2022-12-19T09:37:55;20.08;;;8.43;;
59512;SDS011;45330;51.634;5.562;2022-12-19T09:40:20;20.08;;;8.32;;
59512;SDS011;45330;51.634;5.562;2022-12-19T09:48:31;18.65;;;7.53;;
59512;SDS011;45330;51.634;5.562;2022-12-19T09:51:04;18.50;;;7.97;;
59512;SDS011;45330;51.634;5.562;2022-12-19T09:53:43;20.67;;;8.40;;
59512;SDS011;45330;51.634;5.562;2022-12-19T09:56:25;20.40;;;7.88;;
59512;SDS011;45330;51.634;5.562;2022-12-19T09:58:55;19.23;;;7.82;;
59512;SDS011;45330;51.634;5.562;2022-12-19T10:01:27;19.85;;;7.55;;
59512;SDS011;45330;51.634;5.562;2022-12-19T10:04:02;18.70;;;7.63;;
59512;SDS011;45330;51.634;5.562;2022-12-19T10:06:37;19.15;;;7.93;;
59512;SDS011;45330;51.634;5.562;2022-12-19T10:09:02;19.33;;;7.30;;
59512;SDS011;45330;51.634;5.562;2022-12-19T10:11:32;19.38;;;7.57;;
59512;SDS011;45330;51.634;5.562;2022-12-19T10:19:37;17.90;;;6.85;;
59512;SDS011;45330;51.634;5.562;2022-12-19T10:27:48;18.55;;;7.10;;
59512;SDS011;45330;51.634;5.562;2022-12-19T10:30:16;18.30;;;7.20;;
59512;SDS011;45330;51.634;5.562;2022-12-19T10:32:54;18.60;;;6.88;;
59512;SDS011;45330;51.634;5.562;2022-12-19T10:35:25;19.13;;;7.15;;
59512;SDS011;45330;51.634;5.562;2022-12-19T10:40:36;19.25;;;6.93;;
59512;SDS011;45330;51.634;5.562;2022-12-19T10:43:25;18.20;;;7.07;;
59512;SDS011;45330;51.634;5.562;2022-12-19T10:46:06;18.02;;;6.88;;
59512;SDS011;45330;51.634;5.562;2022-12-19T10:48:55;18.80;;;6.93;;
59512;SDS011;45330;51.634;5.562;2022-12-19T10:51:25;16.63;;;6.65;;
59512;SDS011;45330;51.634;5.562;2022-12-19T10:53:53;15.80;;;6.35;;
59512;SDS011;45330;51.634;5.562;2022-12-19T10:56:22;17.63;;;6.72;;
59512;SDS011;45330;51.634;5.562;2022-12-19T10:58:51;17.95;;;6.72;;
59512;SDS011;45330;51.634;5.562;2022-12-19T11:01:24;17.35;;;6.80;;
59512;SDS011;45330;51.634;5.562;2022-12-19T11:09:30;19.67;;;6.93;;
59512;SDS011;45330;51.634;5.562;2022-12-19T11:14:31;19.00;;;7.78;;
59512;SDS011;45330;51.634;5.562;2022-12-19T11:16:58;18.80;;;7.55;;
59512;SDS011;45330;51.634;5.562;2022-12-19T11:19:37;19.25;;;7.40;;
59512;SDS011;45330;51.634;5.562;2022-12-19T11:24:49;18.83;;;7.57;;
59512;SDS011;45330;51.634;5.562;2022-12-19T11:35:15;18.90;;;6.97;;
59512;SDS011;45330;51.634;5.562;2022-12-19T11:37:51;18.17;;;7.45;;
59512;SDS011;45330;51.634;5.562;2022-12-19T11:42:58;18.60;;;7.10;;
59512;SDS011;45330;51.634;5.562;2022-12-19T11:45:38;18.00;;;6.90;;
59512;SDS011;45330;51.634;5.562;2022-12-19T11:48:14;18.02;;;7.25;;
59512;SDS011;45330;51.634;5.562;2022-12-19T11:50:49;20.02;;;7.80;;
59512;SDS011;45330;51.634;5.562;2022-12-19T11:53:32;18.10;;;7.53;;
59512;SDS011;45330;51.634;5.562;2022-12-19T11:56:09;18.88;;;7.07;;
59512;SDS011;45330;51.634;5.562;2022-12-19T11:58:38;17.20;;;6.78;;
59512;SDS011;45330;51.634;5.562;2022-12-19T12:06:47;17.58;;;6.80;;
59512;SDS011;45330;51.634;5.562;2022-12-19T12:09:24;16.05;;;6.35;;
59512;SDS011;45330;51.634;5.562;2022-12-19T12:17:28;15.15;;;5.75;;
59512;SDS011;45330;51.634;5.562;2022-12-19T12:30:25;13.77;;;5.50;;
59512;SDS011;45330;51.634;5.562;2022-12-19T12:35:50;15.37;;;5.70;;
59512;SDS011;45330;51.634;5.562;2022-12-19T12:41:31;14.27;;;5.32;;
59512;SDS011;45330;51.634;5.562;2022-12-19T12:44:27;14.40;;;5.30;;
59512;SDS011;45330;51.634;5.562;2022-12-19T12:47:17;13.15;;;5.60;;
59512;SDS011;45330;51.634;5.562;2022-12-19T12:49:52;11.98;;;5.13;;
59512;SDS011;45330;51.634;5.562;2022-12-19T12:52:38;14.75;;;5.45;;
59512;SDS011;45330;51.634;5.562;2022-12-19T12:55:14;15.15;;;5.25;;
59512;SDS011;45330;51.634;5.562;2022-12-19T12:57:44;14.73;;;5.25;;
59512;SDS011;45330;51.634;5.562;2022-12-19T13:00:17;11.27;;;4.88;;
59512;SDS011;45330;51.634;5.562;2022-12-19T13:02:48;13.30;;;4.85;;
59512;SDS011;45330;51.634;5.562;2022-12-19T13:05:35;15.00;;;5.03;;
59512;SDS011;45330;51.634;5.562;2022-12-19T13:08:01;14.70;;;5.07;;
59512;SDS011;45330;51.634;5.562;2022-12-19T13:10:56;10.98;;;4.57;;
59512;SDS011;45330;51.634;5.562;2022-12-19T13:19:19;13.27;;;4.93;;
59512;SDS011;45330;51.634;5.562;2022-12-19T13:25:08;12.98;;;4.85;;
59512;SDS011;45330;51.634;5.562;2022-12-19T13:27:50;13.77;;;5.03;;
59512;SDS011;45330;51.634;5.562;2022-12-19T13:30:20;12.85;;;4.75;;
59512;SDS011;45330;51.634;5.562;2022-12-19T13:40:05;13.88;;;4.30;;
59512;SDS011;45330;51.634;5.562;2022-12-19T13:42:35;11.82;;;4.38;;
59512;SDS011;45330;51.634;5.562;2022-12-19T13:47:55;16.13;;;4.95;;
59512;SDS011;45330;51.634;5.562;2022-12-19T13:50:38;10.90;;;4.30;;
59512;SDS011;45330;51.634;5.562;2022-12-19T13:53:13;12.40;;;4.07;;
59512;SDS011;45330;51.634;5.562;2022-12-19T13:55:40;10.68;;;4.10;;
59512;SDS011;45330;51.634;5.562;2022-12-19T13:58:05;11.73;;;3.97;;
59512;SDS011;45330;51.634;5.562;2022-12-19T14:00:35;10.95;;;4.10;;
59512;SDS011;45330;51.634;5.562;2022-12-19T14:03:05;12.38;;;4.18;;
59512;SDS011;45330;51.634;5.562;2022-12-19T14:05:41;11.50;;;4.38;;
59512;SDS011;45330;51.634;5.562;2022-12-19T14:08:06;11.80;;;4.28;;
59512;SDS011;45330;51.634;5.562;2022-12-19T14:10:38;10.57;;;4.20;;
59512;SDS011;45330;51.634;5.562;2022-12-19T14:13:14;11.75;;;4.28;;
59512;SDS011;45330;51.634;5.562;2022-12-19T14:16:14;8.88;;;3.63;;
59512;SDS011;45330;51.634;5.562;2022-12-19T14:18:45;10.05;;;4.00;;
59512;SDS011;45330;51.634;5.562;2022-12-19T14:21:23;11.48;;;3.83;;
59512;SDS011;45330;51.634;5.562;2022-12-19T14:26:41;10.70;;;3.65;;
59512;SDS011;45330;51.634;5.562;2022-12-19T14:29:11;11.55;;;4.00;;
59512;SDS011;45330;51.634;5.562;2022-12-19T14:31:41;10.48;;;3.70;;
59512;SDS011;45330;51.634;5.562;2022-12-19T14:34:12;10.20;;;3.80;;
59512;SDS011;45330;51.634;5.562;2022-12-19T14:36:51;9.85;;;3.90;;
59512;SDS011;45330;51.634;5.562;2022-12-19T14:39:18;9.43;;;3.80;;
59512;SDS011;45330;51.634;5.562;2022-12-19T14:41:47;11.10;;;4.15;;
59512;SDS011;45330;51.634;5.562;2022-12-19T14:44:49;12.48;;;4.00;;
59512;SDS011;45330;51.634;5.562;2022-12-19T14:47:24;10.10;;;3.75;;
59512;SDS011;45330;51.634;5.562;2022-12-19T14:49:56;11.02;;;3.85;;
59512;SDS011;45330;51.634;5.562;2022-12-19T14:55:25;11.57;;;4.10;;
59512;SDS011;45330;51.634;5.562;2022-12-19T14:57:56;9.30;;;3.75;;
59512;SDS011;45330;51.634;5.562;2022-12-19T15:00:24;8.88;;;3.50;;
59512;SDS011;45330;51.634;5.562;2022-12-19T15:02:55;9.80;;;3.65;;
59512;SDS011;45330;51.634;5.562;2022-12-19T15:05:23;9.38;;;3.70;;
59512;SDS011;45330;51.634;5.562;2022-12-19T15:07:50;7.60;;;3.60;;
59512;SDS011;45330;51.634;5.562;2022-12-19T15:21:01;11.25;;;3.92;;
59512;SDS011;45330;51.634;5.562;2022-12-19T15:23:29;12.45;;;4.07;;
59512;SDS011;45330;51.634;5.562;2022-12-19T15:25:56;9.23;;;3.95;;
59512;SDS011;45330;51.634;5.562;2022-12-19T15:28:29;11.88;;;3.90;;
59512;SDS011;45330;51.634;5.562;2022-12-19T15:31:02;11.32;;;3.55;;
59512;SDS011;45330;51.634;5.562;2022-12-19T15:33:33;8.57;;;3.55;;
59512;SDS011;45330;51.634;5.562;2022-12-19T15:35:59;8.98;;;3.63;;
59512;SDS011;45330;51.634;5.562;2022-12-19T15:38:24;9.88;;;4.03;;
59512;SDS011;45330;51.634;5.562;2022-12-19T15:40:49;8.60;;;3.30;;
59512;SDS011;45330;51.634;5.562;2022-12-19T15:43:16;9.05;;;3.78;;
59512;SDS011;45330;51.634;5.562;2022-12-19T15:45:43;11.75;;;4.10;;
59512;SDS011;45330;51.634;5.562;2022-12-19T15:48:12;11.23;;;4.07;;
59512;SDS011;45330;51.634;5.562;2022-12-19T15:50:40;9.82;;;3.70;;
59512;SDS011;45330;51.634;5.562;2022-12-19T15:53:12;8.50;;;3.30;;
59512;SDS011;45330;51.634;5.562;2022-12-19T15:55:44;9.32;;;3.65;;
59512;SDS011;45330;51.634;5.562;2022-12-19T15:58:11;11.30;;;3.75;;
59512;SDS011;45330;51.634;5.562;2022-12-19T16:00:38;11.35;;;3.72;;
59512;SDS011;45330;51.634;5.562;2022-12-19T16:03:07;8.13;;;3.10;;
59512;SDS011;45330;51.634;5.562;2022-12-19T16:05:36;12.02;;;3.60;;
59512;SDS011;45330;51.634;5.562;2022-12-19T16:08:01;10.55;;;3.80;;
59512;SDS011;45330;51.634;5.562;2022-12-19T16:10:27;8.95;;;3.80;;
59512;SDS011;45330;51.634;5.562;2022-12-19T16:12:54;10.95;;;3.90;;
59512;SDS011;45330;51.634;5.562;2022-12-19T16:17:51;8.23;;;3.40;;
59512;SDS011;45330;51.634;5.562;2022-12-19T16:20:22;10.75;;;3.45;;
59512;SDS011;45330;51.634;5.562;2022-12-19T16:22:49;10.02;;;3.88;;
59512;SDS011;45330;51.634;5.562;2022-12-19T16:25:15;7.68;;;3.55;;
59512;SDS011;45330;51.634;5.562;2022-12-19T16:27:41;10.90;;;3.97;;
59512;SDS011;45330;51.634;5.562;2022-12-19T16:32:43;7.68;;;3.28;;
59512;SDS011;45330;51.634;5.562;2022-12-19T16:35:15;9.48;;;3.60;;
59512;SDS011;45330;51.634;5.562;2022-12-19T16:37:43;10.20;;;3.60;;
59512;SDS011;45330;51.634;5.562;2022-12-19T16:40:16;10.32;;;3.60;;
59512;SDS011;45330;51.634;5.562;2022-12-19T16:42:43;9.88;;;3.65;;
59512;SDS011;45330;51.634;5.562;2022-12-19T16:45:24;10.60;;;4.00;;
59512;SDS011;45330;51.634;5.562;2022-12-19T16:47:50;13.02;;;3.95;;
59512;SDS011;45330;51.634;5.562;2022-12-19T16:50:26;13.07;;;4.05;;
59512;SDS011;45330;51.634;5.562;2022-12-19T16:52:53;10.52;;;3.80;;
59512;SDS011;45330;51.634;5.562;2022-12-19T16:55:20;9.98;;;3.85;;
59512;SDS011;45330;51.634;5.562;2022-12-19T16:57:47;11.52;;;3.80;;
59512;SDS011;45330;51.634;5.562;2022-12-19T17:00:18;10.98;;;3.80;;
59512;SDS011;45330;51.634;5.562;2022-12-19T17:05:16;10.25;;;3.70;;
59512;SDS011;45330;51.634;5.562;2022-12-19T17:07:47;10.90;;;3.70;;
59512;SDS011;45330;51.634;5.562;2022-12-19T17:10:12;9.93;;;3.50;;
59512;SDS011;45330;51.634;5.562;2022-12-19T17:12:38;8.27;;;3.25;;
59512;SDS011;45330;51.634;5.562;2022-12-19T17:15:06;9.82;;;3.70;;
59512;SDS011;45330;51.634;5.562;2022-12-19T17:17:37;9.93;;;3.53;;